CET,Max TemperatureF,Mean TemperatureF,Min TemperatureF,Max Dew PointF,MeanDew PointF,Min DewpointF,Max Humidity, Mean Humidity, Min Humidity, Max Sea Level PressureIn, Mean Sea Level PressureIn, Min Sea Level PressureIn, Max VisibilityMiles, Mean VisibilityMiles, Min VisibilityMiles, Max Wind SpeedMPH, Mean Wind SpeedMPH, Max Gust SpeedMPH,PrecipitationIn, CloudCover, Events, WindDirDegrees
2011-10-1,75,60,44,55,49,45,100,69,36,30.39,30.36,30.33,,,,6,3,,0.00,,,345
2011-10-2,75,62,48,55,48,45,94,66,36,30.36,30.31,30.24,,,,7,4,,0.00,,,219
2011-10-3,75,62,48,54,49,45,88,68,44,30.24,30.20,30.15,,,,12,7,,0.00,,,228
2011-10-4,73,64,55,55,53,48,88,70,50,30.18,30.15,30.12,,,,18,12,,0.00,,,228
2011-10-5,64,58,51,55,52,48,88,78,68,30.18,30.15,30.12,6,6,6,20,12,,0.00,6,,226
2011-10-6,69,60,50,54,51,46,94,70,49,30.12,29.92,29.71,6,6,6,25,13,39,0.00,3,Rain,217
2011-10-7,53,47,41,48,42,37,94,82,58,29.83,29.79,29.74,6,6,6,16,10,,0.00,3,Rain,254
2011-10-8,48,44,39,43,40,36,93,84,62,29.89,29.79,29.74,6,6,6,18,14,,0.00,4,Rain,255
2011-10-9,50,44,37,39,38,34,93,81,62,30.18,30.07,29.89,6,6,6,16,10,,0.00,5,Rain,280
2011-10-10,59,48,37,55,46,34,100,88,76,30.15,29.98,29.92,6,6,2,25,14,,0.00,7,Rain,221
2011-10-11,62,58,55,54,52,50,88,79,63,30.01,29.97,29.95,6,6,6,26,21,34,0.00,5,Rain,243
2011-10-12,57,52,46,52,46,43,94,88,82,30.12,30.02,29.92,6,6,2,25,14,30,0.00,5,Rain,268
2011-10-13,51,45,37,43,38,34,100,79,50,30.42,30.27,30.12,6,6,6,15,8,,0.00,2,Rain,287
2011-10-14,46,40,33,37,33,30,100,78,53,30.57,30.49,30.39,6,6,6,12,6,,0.00,2,,352
2011-10-15,48,38,28,34,31,27,100,78,54,30.57,30.51,30.45,4,3,0,7,3,,0.00,1,Fog,89
2011-10-16,51,42,32,34,32,28,100,74,43,30.45,30.42,30.36,6,5,5,9,4,,0.00,,Fog,122
2011-10-17,51,40,30,34,31,27,93,71,47,30.33,30.25,30.15,,,,9,5,,0.00,,,146
2011-10-18,62,48,35,45,40,34,93,75,45,30.15,29.99,29.83,6,5,4,15,9,,0.00,4,,190
2011-10-19,53,47,41,45,41,39,100,91,67,30.06,29.97,29.86,6,6,5,14,8,,0.00,6,Rain,255
2011-10-20,50,42,33,39,37,32,100,83,54,30.30,30.18,30.06,6,6,6,18,12,,0.00,3,Rain,247
2011-10-21,48,39,30,36,32,28,100,85,53,30.39,30.36,30.30,6,5,0,9,6,,0.00,2,Fog,192
2011-10-22,37,32,28,36,32,27,100,96,87,30.39,30.33,30.24,4,1,0,7,4,,0.00,6,Fog,53
2011-10-23,44,36,28,41,35,28,100,96,87,30.24,30.21,30.15,6,2,0,12,4,,0.00,6,Fog,53
2011-10-24,53,46,39,45,42,37,100,83,67,30.15,30.06,29.98,6,6,3,22,12,,0.00,6,,107
2011-10-25,48,46,44,45,43,43,100,89,82,29.98,29.88,29.80,6,5,3,17,13,,0.00,7,Rain,97
2011-10-26,51,50,48,50,48,46,100,95,88,30.12,29.98,29.83,6,4,2,9,6,,0.00,8,Rain,124
2011-10-27,50,48,46,46,46,45,100,92,82,30.12,30.11,30.09,6,3,0,12,8,,0.00,8,Fog-Rain,102
2011-10-28,51,48,44,46,45,43,93,87,76,30.33,30.24,30.12,6,6,4,7,5,,0.00,7,,168
2011-10-29,48,42,35,46,42,36,100,96,87,30.36,30.34,30.27,4,1,0,7,4,,0.00,6,Fog,313
2011-10-30,51,46,42,45,43,41,100,90,76,30.27,30.24,30.21,6,4,2,8,4,,0.00,7,Fog,146
2011-10-31,48,44,39,48,44,37,100,98,93,30.21,30.19,30.15,3,1,0,7,2,,0.00,7,Fog,89